首页
METAR-TAF:

METAR-TAF

机场 :

拉斯维加斯, 内华达州, 美国

麦卡伦国际机场

纬度: 36-04-44N, 经度: 115-09-19W, 海拔: 663米

当前天气观测

该预报发布于10分钟前的23:56 UTC
静风
温度 19°C
湿度 30%
气压 1024 hPa
能見度: 16.1公里
多云层高于22000英尺

METAR: KLAS 172356Z 00000KT 10SM BKN220 19/01 A3024 RMK AO2 SLP232 T01890011 10189 20144 55000

时间: 16:06 (00:06 UTC)

预报

该预报发布于46分钟前的23:20 UTC
预报有效从18日的 00点(UTC)到 19日的 06点(UTC)
风速4节,风向多变
能見度: 10公里
多云层高于25000英尺
从 18日的 0200点(UTC)
风速5节,风向南转西南
能見度: 10公里
多云层高于25000英尺
从 18日的 1000点(UTC)
风速5节,风向多变
能見度: 10公里
多云层高于25000英尺
从 18日的 1900点(UTC)
风速7节,风向
能見度: 10公里
多云层高于25000英尺
从 19日的 0300点(UTC)
风速7节,风向南转西南
能見度: 10公里
多云层高于20000英尺

TAF: KLAS 172320Z 1800/1906 VRB04KT P6SM BKN250 FM180200 21005KT P6SM BKN250 FM181000 VRB05KT P6SM BKN250 FM181900 09007KT P6SM BKN250 FM190300 21007KT P6SM BKN200

超过4000个机场的气象观测和天气预报(METAR&TAF报告)。

可查询的气象台以黄色和红色小点在地图上表示。

将鼠标移到小点上方,可查看气象台名称。

然后点击查看天气观测和预报。

如需切换地图:点击带黑十字的绿色按钮放大地图;点击带横线的绿色按钮缩小地图;或者点击绿色箭头查看邻近地区的地图。


METAR-TAF: